createdAt,value
2019-05-21T00:00:08.167Z,89.18
2019-05-21T00:02:34.029Z,89.60
2019-05-21T00:04:59.915Z,89.36
2019-05-21T00:07:25.762Z,89.36
2019-05-21T00:09:51.623Z,89.66
2019-05-21T00:12:17.485Z,89.98
2019-05-21T00:14:43.340Z,89.47
2019-05-21T00:17:09.239Z,89.90
2019-05-21T00:19:35.190Z,89.39
2019-05-21T00:22:01.111Z,89.21
2019-05-21T00:24:27.037Z,89.21
2019-05-21T00:26:53.030Z,89.36
2019-05-21T00:29:56.727Z,89.59
2019-05-21T00:33:00.231Z,89.61
2019-05-21T00:36:03.878Z,89.63
2019-05-21T00:39:07.521Z,89.72
2019-05-21T00:41:58.319Z,90.12
2019-05-21T00:44:24.269Z,89.96
2019-05-21T00:46:50.124Z,90.02
2019-05-21T00:49:16.347Z,89.52
2019-05-21T00:51:42.197Z,90.09
2019-05-21T00:54:08.056Z,90.56
2019-05-21T00:56:33.910Z,90.09
2019-05-21T00:58:59.782Z,90.55
2019-05-21T01:01:25.662Z,90.28
2019-05-21T01:03:51.500Z,90.21
2019-05-21T01:06:17.358Z,90.50
2019-05-21T01:08:43.222Z,90.42
2019-05-21T01:11:09.083Z,90.74
2019-05-21T01:13:34.960Z,90.80
2019-05-21T01:16:00.809Z,90.73
2019-05-21T01:18:26.663Z,90.75
2019-05-21T01:20:53.036Z,90.82
2019-05-21T01:23:18.905Z,90.48
2019-05-21T01:25:44.763Z,91.12
2019-05-21T01:28:10.623Z,91.13
2019-05-21T01:30:36.495Z,90.65
2019-05-21T01:33:02.381Z,90.71
2019-05-21T01:35:28.228Z,91.11
2019-05-21T01:37:54.096Z,91.12
2019-05-21T01:40:19.953Z,91.01
2019-05-21T01:42:45.816Z,91.08
2019-05-21T01:45:11.984Z,90.98
2019-05-21T01:47:37.851Z,90.95
2019-05-21T01:50:05.122Z,91.23
2019-05-21T01:52:31.002Z,90.81
2019-05-21T01:54:56.838Z,90.52
2019-05-21T01:57:22.698Z,90.29
2019-05-21T01:59:48.570Z,90.34
2019-05-21T02:02:14.416Z,89.84
2019-05-21T02:04:40.284Z,89.65
2019-05-21T02:07:06.139Z,89.93
2019-05-21T02:09:33.912Z,90.10
2019-05-21T02:11:59.762Z,89.83
2019-05-21T02:14:25.638Z,89.97
2019-05-21T02:16:51.505Z,90.06
2019-05-21T02:19:17.368Z,89.85
2019-05-21T02:21:43.235Z,90.25
2019-05-21T02:24:09.106Z,89.96
2019-05-21T02:26:34.957Z,89.96
2019-05-21T02:29:00.841Z,90.06
2019-05-21T02:31:26.692Z,90.17
2019-05-21T02:33:52.576Z,89.98
2019-05-21T02:36:18.421Z,90.34
2019-05-21T02:38:44.331Z,90.38
2019-05-21T02:41:10.494Z,90.57
2019-05-21T02:43:36.364Z,90.39
2019-05-21T02:46:02.234Z,90.19
2019-05-21T02:48:28.123Z,89.92
2019-05-21T02:50:53.978Z,89.78
2019-05-21T02:53:19.878Z,89.35
2019-05-21T02:55:45.721Z,89.53
2019-05-21T02:58:11.587Z,89.54
2019-05-21T03:00:44.914Z,89.82
2019-05-21T03:03:15.731Z,89.53
2019-05-21T03:05:41.715Z,89.21
2019-05-21T03:08:07.581Z,89.13
2019-05-21T03:10:33.468Z,89.10
2019-05-21T03:12:59.339Z,89.25
2019-05-21T03:15:25.225Z,89.56
2019-05-21T03:17:51.087Z,89.77
2019-05-21T03:20:17.203Z,89.81
2019-05-21T03:22:43.023Z,89.60
2019-05-21T03:25:09.304Z,89.73
2019-05-21T03:27:35.187Z,89.70
2019-05-21T03:30:01.030Z,89.60
2019-05-21T03:32:26.911Z,89.94
2019-05-21T03:34:53.623Z,89.95
2019-05-21T03:37:19.483Z,89.93
2019-05-21T03:39:45.361Z,89.81
2019-05-21T03:42:11.232Z,90.07
2019-05-21T03:44:37.520Z,90.03
2019-05-21T03:47:03.424Z,90.32
2019-05-21T03:49:29.277Z,90.09
2019-05-21T03:51:55.145Z,90.20
2019-05-21T03:54:21.008Z,90.23
2019-05-21T03:56:46.901Z,90.58
2019-05-21T03:59:12.745Z,90.33
2019-05-21T04:01:38.619Z,90.11
2019-05-21T04:04:04.476Z,89.83
2019-05-21T04:06:30.389Z,89.83
2019-05-21T04:08:56.225Z,90.02
2019-05-21T04:11:22.081Z,90.49
2019-05-21T04:13:47.972Z,90.48
2019-05-21T04:16:18.978Z,90.29
2019-05-21T04:18:46.732Z,90.40
2019-05-21T04:21:12.641Z,89.85
2019-05-21T04:23:38.489Z,90.23
2019-05-21T04:26:04.355Z,90.32
2019-05-21T04:28:30.224Z,90.16
2019-05-21T04:30:56.092Z,90.38
2019-05-21T04:33:21.947Z,90.46
2019-05-21T04:35:47.826Z,90.45
2019-05-21T04:38:13.673Z,90.71
2019-05-21T04:40:39.540Z,90.15
2019-05-21T04:43:05.411Z,89.93
2019-05-21T04:45:32.180Z,89.95
2019-05-21T04:47:58.038Z,89.92
2019-05-21T04:50:23.934Z,90.04
2019-05-21T04:52:49.782Z,89.66
2019-05-21T04:55:15.640Z,89.00
2019-05-21T04:57:41.515Z,89.37
2019-05-21T05:00:07.786Z,89.33
2019-05-21T05:02:33.648Z,89.73
2019-05-21T05:04:59.511Z,89.45
2019-05-21T05:07:28.614Z,89.44
2019-05-21T05:09:53.170Z,89.16
2019-05-21T05:12:19.023Z,89.57
2019-05-21T05:14:44.892Z,89.36
2019-05-21T05:17:10.752Z,89.31
2019-05-21T05:19:36.646Z,89.11
2019-05-21T05:22:02.577Z,88.71
2019-05-21T05:24:28.386Z,88.75
2019-05-21T05:26:54.475Z,88.49
2019-05-21T05:29:20.535Z,88.27
2019-05-21T05:31:46.385Z,88.55
2019-05-21T05:34:12.367Z,89.22
2019-05-21T05:36:38.278Z,89.04
2019-05-21T05:39:05.583Z,89.34
2019-05-21T05:41:31.572Z,89.50
2019-05-21T05:43:57.649Z,89.02
2019-05-21T05:46:23.626Z,89.81
2019-05-21T05:49:03.542Z,89.89
2019-05-21T05:51:29.446Z,90.14
2019-05-21T05:53:58.402Z,89.92
2019-05-21T05:56:27.873Z,90.52
2019-05-21T05:58:53.934Z,90.13
2019-05-21T06:01:19.937Z,90.46
2019-05-21T06:03:45.813Z,89.86
2019-05-21T06:06:11.765Z,89.86
2019-05-21T06:08:37.799Z,90.01
2019-05-21T06:11:04.129Z,89.93
2019-05-21T06:13:30.102Z,89.74
2019-05-21T06:15:55.968Z,89.54
2019-05-21T06:18:21.854Z,89.94
2019-05-21T06:20:47.750Z,90.08
2019-05-21T06:23:13.603Z,90.23
2019-05-21T06:25:39.481Z,90.53
2019-05-21T06:28:05.328Z,90.17
2019-05-21T06:30:31.224Z,89.81
2019-05-21T06:32:57.090Z,90.27
2019-05-21T06:35:22.959Z,90.21
2019-05-21T06:37:48.803Z,90.63
2019-05-21T06:40:15.086Z,90.49
2019-05-21T06:42:40.930Z,90.28
2019-05-21T06:45:07.631Z,90.17
2019-05-21T06:47:33.511Z,90.12
2019-05-21T06:49:59.677Z,90.53
2019-05-21T06:52:25.518Z,90.23
2019-05-21T06:54:51.408Z,90.32
2019-05-21T06:57:17.244Z,90.46
2019-05-21T06:59:43.101Z,90.13
2019-05-21T07:02:08.995Z,90.14
2019-05-21T07:04:34.842Z,90.34
2019-05-21T07:07:00.689Z,90.15
2019-05-21T07:09:26.541Z,90.26
2019-05-21T07:11:52.403Z,90.10
2019-05-21T07:14:18.393Z,89.77
2019-05-21T07:16:44.218Z,90.20
2019-05-21T07:19:10.060Z,89.87
2019-05-21T07:21:35.930Z,90.20
2019-05-21T07:24:01.785Z,90.03
2019-05-21T07:26:27.654Z,89.90
2019-05-21T07:28:55.587Z,89.92
2019-05-21T07:31:21.278Z,89.98
2019-05-21T07:33:47.152Z,89.74
2019-05-21T07:36:13.012Z,89.57
2019-05-21T07:38:52.507Z,89.52
2019-05-21T07:41:06.663Z,89.71
2019-05-21T07:43:32.520Z,89.52
2019-05-21T07:45:58.379Z,89.83
2019-05-21T07:48:24.236Z,89.60
2019-05-21T07:50:50.098Z,89.81
2019-05-21T07:53:15.978Z,90.23
2019-05-21T07:55:41.829Z,90.36
2019-05-21T07:58:07.693Z,90.58
2019-05-21T08:00:33.561Z,90.35
2019-05-21T08:02:59.411Z,90.50
2019-05-21T08:05:25.268Z,90.67
2019-05-21T08:07:51.263Z,90.18
2019-05-21T08:10:17.104Z,90.53
2019-05-21T08:12:42.957Z,90.53
2019-05-21T08:15:09.021Z,90.72
2019-05-21T08:17:34.985Z,90.88
2019-05-21T08:20:09.425Z,90.97
2019-05-21T08:22:29.122Z,90.82
2019-05-21T08:24:54.977Z,90.68
2019-05-21T08:27:20.851Z,90.24
2019-05-21T08:29:46.727Z,90.36
2019-05-21T08:32:12.578Z,90.36
2019-05-21T08:34:38.743Z,90.38
2019-05-21T08:37:04.717Z,90.26
2019-05-21T08:39:30.610Z,90.01
2019-05-21T08:41:56.599Z,89.71
2019-05-21T08:44:23.362Z,89.42
2019-05-21T08:46:49.225Z,89.58
2019-05-21T08:49:15.081Z,89.58
2019-05-21T08:51:40.949Z,89.83
2019-05-21T08:54:06.838Z,89.54
2019-05-21T08:56:32.710Z,89.63
2019-05-21T08:58:58.578Z,89.68
2019-05-21T09:01:24.439Z,90.01
2019-05-21T09:03:50.308Z,89.75
2019-05-21T09:06:16.166Z,89.68
2019-05-21T09:08:42.106Z,89.25
2019-05-21T09:11:07.963Z,89.78
2019-05-21T09:13:33.879Z,89.64
2019-05-21T09:15:59.702Z,89.29
2019-05-21T09:18:25.554Z,89.27
2019-05-21T09:20:51.413Z,89.15
2019-05-21T09:23:17.290Z,100.00
2019-05-21T09:25:43.148Z,89.25
2019-05-21T09:28:09.014Z,89.28
2019-05-21T09:30:35.982Z,89.04
2019-05-21T09:33:01.834Z,88.90
2019-05-21T09:35:27.680Z,88.72
2019-05-21T09:37:53.546Z,88.71
2019-05-21T09:40:21.210Z,88.44
2019-05-21T09:42:47.074Z,88.41
2019-05-21T09:45:13.354Z,87.96
2019-05-21T09:47:39.206Z,87.84
2019-05-21T09:50:06.096Z,87.74
2019-05-21T09:52:32.024Z,87.81
2019-05-21T09:54:57.869Z,87.66
2019-05-21T09:57:44.088Z,87.65
2019-05-21T10:00:30.743Z,87.43
2019-05-21T10:02:56.807Z,87.47
2019-05-21T10:05:22.646Z,87.08
2019-05-21T10:07:48.521Z,86.63
2019-05-21T10:10:14.495Z,86.76
2019-05-21T10:12:40.359Z,86.82
2019-05-21T10:15:06.425Z,86.74
2019-05-21T10:17:32.298Z,86.69
2019-05-21T10:19:58.909Z,87.02
2019-05-21T10:22:24.909Z,86.70
2019-05-21T10:24:50.777Z,86.50
2019-05-21T10:27:16.627Z,86.53
2019-05-21T10:29:42.491Z,86.09
2019-05-21T10:32:08.450Z,85.81
2019-05-21T10:34:34.316Z,85.56
2019-05-21T10:37:00.184Z,84.96
2019-05-21T10:39:26.037Z,84.35
2019-05-21T10:41:51.898Z,84.59
2019-05-21T10:44:17.870Z,84.61
2019-05-21T10:46:43.926Z,84.72
2019-05-21T10:49:09.804Z,84.59
2019-05-21T10:51:35.666Z,84.48
2019-05-21T10:54:01.622Z,84.29
2019-05-21T10:56:27.486Z,84.57
2019-05-21T10:58:53.364Z,84.07
2019-05-21T11:01:38.622Z,84.07
2019-05-21T11:04:24.511Z,84.18
2019-05-21T11:06:50.507Z,84.22
2019-05-21T11:09:18.157Z,83.98
2019-05-21T11:11:43.955Z,83.59
2019-05-21T11:14:09.902Z,83.28
2019-05-21T11:16:35.778Z,83.50
2019-05-21T11:19:01.631Z,83.06
2019-05-21T11:21:27.484Z,82.94
2019-05-21T11:23:53.473Z,82.79
2019-05-21T11:26:19.351Z,82.60
2019-05-21T11:28:45.200Z,82.29
2019-05-21T11:31:11.075Z,82.34
2019-05-21T11:33:36.937Z,82.23
2019-05-21T11:36:02.807Z,82.25
2019-05-21T11:38:39.639Z,82.20
2019-05-21T11:40:56.671Z,81.95
2019-05-21T11:43:22.523Z,81.68
2019-05-21T11:45:48.409Z,81.07
2019-05-21T11:48:14.266Z,80.97
2019-05-21T11:50:40.243Z,80.59
2019-05-21T11:53:06.111Z,80.60
2019-05-21T11:55:31.958Z,80.37
2019-05-21T11:57:57.822Z,80.10
